Time;durP1;ratioP1;P1;durP2;ratioP2;P2;SDS_P1;SDS_P2;PMS_P1;PMS_P2;Temp;Humidity;BMP_temperature;BMP_pressure;BME280_temperature;BME280_humidity;BME280_pressure;Samples;Min_cycle;Max_cycle;Signal;HPM_P1;HPM_P2
2022/10/27 00:00:55;;;;;;;;;;;;;;;16.60;57.44;101717.97;4959007;28;1125;-57
2022/10/27 00:03:21;;;;;;;;;;;;;;;16.44;57.12;101722.41;4958939;28;1169;-56
2022/10/27 00:05:46;;;;;;;;;;;;;;;16.35;56.72;101712.91;4958701;28;1177;-57
2022/10/27 00:08:13;;;;;;;;;;;;;;;16.22;56.51;101714.06;4958675;28;1205;-56
2022/10/27 00:10:41;;;;;;;;;;;;;;;16.13;56.70;101715.53;4959078;28;1192;-57
2022/10/27 00:13:06;;;;;;;;;;;;;;;16.47;57.13;101715.59;4958739;28;1101;-57
2022/10/27 00:15:32;;;;;;;;;;;;;;;17.64;56.12;101711.97;4958757;28;1189;-56
2022/10/27 00:17:57;;;;;;;;;;;;;;;16.82;57.46;101723.53;4957978;28;1997;-56
2022/10/27 00:20:22;;;;;;;;;;;;;;;16.51;57.56;101719.47;4958999;28;1133;-57
2022/10/27 00:22:48;;;;;;;;;;;;;;;16.36;57.12;101720.06;4958687;28;1169;-56
2022/10/27 00:25:13;;;;;;;;;;;;;;;16.69;57.66;101718.38;4958600;28;1145;-57
2022/10/27 00:27:39;;;;;;;;;;;;;;;17.56;56.13;101711.34;4958116;28;1166;-57
2022/10/27 00:30:04;;;;;;;;;;;;;;;16.84;57.48;101715.03;4958214;28;1137;-55
2022/10/27 00:32:30;;;;;;;;;;;;;;;16.58;57.16;101714.66;4958461;28;1141;-57
2022/10/27 00:34:56;;;;;;;;;;;;;;;16.42;57.14;101714.41;4958445;28;1157;-56
2022/10/27 00:37:21;;;;;;;;;;;;;;;16.25;56.95;101705.34;4957018;29;1141;-57
2022/10/27 00:39:46;;;;;;;;;;;;;;;16.21;56.53;101702.25;4958312;28;1914;-57
2022/10/27 00:42:12;;;;;;;;;;;;;;;16.52;57.38;101702.78;4958034;28;1235;-57
2022/10/27 00:44:39;;;;;;;;;;;;;;;17.55;55.96;101714.34;4958129;28;1204;-57
2022/10/27 00:47:12;;;;;;;;;;;;;;;16.73;57.64;101705.81;4957928;28;1126;-57
2022/10/27 00:49:39;;;;;;;;;;;;;;;16.47;57.26;101705.44;4956921;29;1158;-56
2022/10/27 00:52:24;;;;;;;;;;;;;;;16.36;56.86;101711.84;4957060;29;1157;-56
2022/10/27 00:54:50;;;;;;;;;;;;;;;16.20;56.67;101705.25;4989122;28;1211;-56
2022/10/27 00:57:15;;;;;;;;;;;;;;;16.71;57.14;101700.56;4958263;28;1185;-54
2022/10/27 00:59:41;;;;;;;;;;;;;;;17.63;55.88;101708.41;4957836;28;1910;-56
2022/10/27 01:02:06;;;;;;;;;;;;;;;16.83;57.11;101707.88;4958030;28;1185;-55
2022/10/27 01:04:33;;;;;;;;;;;;;;;16.55;57.10;101704.16;4958131;28;1129;-56
2022/10/27 01:06:59;;;;;;;;;;;;;;;16.43;56.80;101704.25;4957750;28;1205;-57
2022/10/27 01:09:25;;;;;;;;;;;;;;;16.25;56.70;101697.09;4957646;28;1094;-55
2022/10/27 01:11:50;;;;;;;;;;;;;;;16.36;57.24;101696.19;4956692;29;1142;-56
2022/10/27 01:14:16;;;;;;;;;;;;;;;17.67;56.11;101704.03;4958133;28;1185;-56
2022/10/27 01:16:48;;;;;;;;;;;;;;;16.86;57.42;101702.72;4958173;28;1121;-56
2022/10/27 01:19:32;;;;;;;;;;;;;;;16.57;57.13;101710.25;4957412;28;1977;-56
2022/10/27 01:21:57;;;;;;;;;;;;;;;16.37;56.98;101717.06;4957810;28;1156;-56
2022/10/27 01:24:26;;;;;;;;;;;;;;;16.24;56.87;101711.91;4957983;28;1114;-56
2022/10/27 01:27:10;;;;;;;;;;;;;;;16.11;56.75;101710.31;4958043;28;1157;-57
2022/10/27 01:29:41;;;;;;;;;;;;;;;17.39;56.62;101719.66;4957522;29;1133;-56
2022/10/27 01:32:10;;;;;;;;;;;;;;;16.85;57.45;101727.69;4956310;29;1161;-56
2022/10/27 01:34:37;;;;;;;;;;;;;;;16.52;57.51;101723.88;4957834;28;1394;-57
2022/10/27 01:37:23;;;;;;;;;;;;;;;16.28;57.25;101721.28;4957948;28;1216;-57
2022/10/27 01:39:55;;;;;;;;;;;;;;;16.18;57.03;101718.38;4941934;28;1911;-57
2022/10/27 01:42:22;;;;;;;;;;;;;;;16.26;57.26;101715.25;4957544;28;1153;-57
2022/10/27 01:44:49;;;;;;;;;;;;;;;17.70;55.81;101716.44;4956558;29;1176;-57
2022/10/27 01:47:14;;;;;;;;;;;;;;;16.93;57.02;101719.06;4957343;28;1184;-57
2022/10/27 01:49:40;;;;;;;;;;;;;;;16.57;57.19;101722.06;4956202;29;1161;-56
2022/10/27 01:52:06;;;;;;;;;;;;;;;16.42;57.00;101722.66;4957690;28;1122;-57
2022/10/27 01:54:31;;;;;;;;;;;;;;;16.24;56.91;101723.72;4957922;28;1180;-57
2022/10/27 01:57:00;;;;;;;;;;;;;;;16.14;56.52;101729.00;4960135;29;1122;-56
2022/10/27 01:59:31;;;;;;;;;;;;;;;17.18;56.83;101732.31;4960745;28;1899;-56
2022/10/27 02:02:03;;;;;;;;;;;;;;;17.19;56.79;101733.13;4960949;28;1173;-57
2022/10/27 02:04:35;;;;;;;;;;;;;;;16.69;57.38;101740.34;4961201;28;1133;-58
2022/10/27 02:07:04;;;;;;;;;;;;;;;16.43;57.02;101743.50;4960893;28;1137;-58
2022/10/27 02:09:29;;;;;;;;;;;;;;;16.32;56.80;101740.84;4960930;28;1142;-57
2022/10/27 02:11:55;;;;;;;;;;;;;;;16.19;56.47;101744.75;4960766;28;1180;-57
2022/10/27 02:14:20;;;;;;;;;;;;;;;16.07;56.51;101739.31;4959830;29;1145;-57
2022/10/27 02:16:47;;;;;;;;;;;;;;;17.10;56.69;101741.81;4961160;28;1141;-56
2022/10/27 02:19:15;;;;;;;;;;;;;;;17.38;56.35;101748.25;4959469;29;2011;-56
2022/10/27 02:21:40;;;;;;;;;;;;;;;16.71;57.29;101741.75;4959646;29;1137;-56
2022/10/27 02:24:06;;;;;;;;;;;;;;;16.47;56.97;101749.34;4960205;28;1102;-56
2022/10/27 02:26:35;;;;;;;;;;;;;;;16.29;57.10;101747.66;4959548;29;1193;-55
2022/10/27 02:29:02;;;;;;;;;;;;;;;16.19;56.77;101747.50;4959138;29;1137;-55
2022/10/27 02:31:29;;;;;;;;;;;;;;;17.15;56.78;101748.47;4958873;29;924;-57
2022/10/27 02:33:55;;;;;;;;;;;;;;;17.24;56.72;101753.28;4960404;28;1149;-57
2022/10/27 02:36:20;;;;;;;;;;;;;;;16.71;57.19;101755.50;4959455;29;1094;-57
2022/10/27 02:38:45;;;;;;;;;;;;;;;16.47;57.22;101759.50;4960185;28;1962;-57
2022/10/27 02:41:11;;;;;;;;;;;;;;;16.29;56.77;101758.66;4959872;28;1117;-56
2022/10/27 02:43:36;;;;;;;;;;;;;;;16.19;56.89;101761.22;4960464;28;959;-57
2022/10/27 02:46:02;;;;;;;;;;;;;;;17.17;56.76;101769.13;4960267;28;1302;-58
2022/10/27 02:48:27;;;;;;;;;;;;;;;17.30;56.42;101773.41;4958994;28;2258;-56
2022/10/27 02:50:53;;;;;;;;;;;;;;;16.67;57.33;101767.25;4959967;28;1833;-54
2022/10/27 02:53:18;;;;;;;;;;;;;;;16.51;57.21;101766.13;4959957;28;2085;-56
2022/10/27 02:55:43;;;;;;;;;;;;;;;16.43;56.64;101781.13;4959634;28;2303;-56
2022/10/27 02:58:09;;;;;;;;;;;;;;;16.22;56.56;101768.97;4959430;28;2070;-54
2022/10/27 03:00:34;;;;;;;;;;;;;;;16.17;56.61;101772.44;4959383;28;1848;-54
2022/10/27 03:03:01;;;;;;;;;;;;;;;17.51;56.01;101770.94;4958926;28;1951;-51
2022/10/27 03:05:27;;;;;;;;;;;;;;;17.08;56.99;101782.47;4959458;28;1311;-51
2022/10/27 03:07:52;;;;;;;;;;;;;;;16.68;57.07;101777.16;4958120;28;1284;-53
2022/10/27 03:10:18;;;;;;;;;;;;;;;16.48;56.96;101772.13;4958950;28;1221;-52
2022/10/27 03:12:44;;;;;;;;;;;;;;;16.32;56.93;101763.63;4958968;28;1102;-53
2022/10/27 03:15:10;;;;;;;;;;;;;;;16.19;56.62;101773.03;4958971;28;1291;-52
2022/10/27 03:17:35;;;;;;;;;;;;;;;16.10;56.60;101777.22;4958931;29;1955;-50
2022/10/27 03:20:01;;;;;;;;;;;;;;;16.92;56.91;101781.41;4958570;28;1204;-54
2022/10/27 03:22:26;;;;;;;;;;;;;;;17.50;56.09;101780.28;4959307;28;1328;-51
2022/10/27 03:24:51;;;;;;;;;;;;;;;16.76;57.38;101785.81;4959850;28;1173;-50
2022/10/27 03:27:17;;;;;;;;;;;;;;;16.48;57.30;101777.63;4959399;28;1141;-53
2022/10/27 03:29:42;;;;;;;;;;;;;;;16.39;56.95;101780.78;4959747;28;1165;-51
2022/10/27 03:32:08;;;;;;;;;;;;;;;16.24;56.65;101788.75;4958738;29;1176;-52
2022/10/27 03:34:33;;;;;;;;;;;;;;;16.13;56.61;101785.00;4959038;28;2117;-51
2022/10/27 03:36:59;;;;;;;;;;;;;;;16.38;57.20;101778.28;4958900;28;1225;-52
2022/10/27 03:39:24;;;;;;;;;;;;;;;17.74;55.78;101789.09;4958265;28;1891;-54
2022/10/27 03:41:50;;;;;;;;;;;;;;;16.99;56.94;101785.91;4958526;28;1252;-50
2022/10/27 03:44:15;;;;;;;;;;;;;;;16.57;57.30;101787.94;4958258;28;1228;-55
2022/10/27 03:46:40;;;;;;;;;;;;;;;16.41;57.16;101789.63;4958911;28;1249;-54
2022/10/27 03:49:06;;;;;;;;;;;;;;;16.23;56.87;101787.91;4958588;28;1110;-55
2022/10/27 03:51:31;;;;;;;;;;;;;;;16.40;57.50;101792.59;4958428;29;1264;-54
2022/10/27 03:53:57;;;;;;;;;;;;;;;17.65;55.94;101788.72;4959248;28;1205;-57
2022/10/27 03:56:22;;;;;;;;;;;;;;;16.71;57.87;101784.88;4958712;28;992;-54
2022/10/27 03:58:47;;;;;;;;;;;;;;;16.42;57.75;101794.03;4958964;28;1996;-55
2022/10/27 04:01:13;;;;;;;;;;;;;;;16.19;57.76;101780.44;4958390;28;1220;-56
2022/10/27 04:03:38;;;;;;;;;;;;;;;16.06;57.76;101787.03;4957580;28;1801;-55
2022/10/27 04:06:04;;;;;;;;;;;;;;;15.93;57.70;101782.69;4957138;28;1071;-55
2022/10/27 04:08:29;;;;;;;;;;;;;;;15.88;57.82;101796.31;4958584;28;1033;-53
2022/10/27 04:10:55;;;;;;;;;;;;;;;17.40;56.88;101800.22;4958422;28;1125;-53
2022/10/27 04:13:20;;;;;;;;;;;;;;;16.72;57.99;101809.34;4958636;28;1098;-55
2022/10/27 04:15:46;;;;;;;;;;;;;;;16.30;58.24;101803.38;4958544;28;1236;-55
2022/10/27 04:18:11;;;;;;;;;;;;;;;16.16;58.07;101811.94;4957911;28;1993;-52
2022/10/27 04:20:36;;;;;;;;;;;;;;;15.98;57.88;101806.66;4957834;28;924;-55
2022/10/27 04:23:02;;;;;;;;;;;;;;;15.87;57.84;101805.59;4945496;28;1158;-56
2022/10/27 04:25:27;;;;;;;;;;;;;;;15.86;57.73;101809.41;4946134;28;1129;-56
2022/10/27 04:28:06;;;;;;;;;;;;;;;17.38;56.69;101813.41;4957369;28;1144;-55
2022/10/27 04:30:31;;;;;;;;;;;;;;;16.64;58.22;101809.75;4958687;28;1265;-55
2022/10/27 04:32:57;;;;;;;;;;;;;;;16.25;58.43;101809.63;4957772;28;1832;-55
2022/10/27 04:35:22;;;;;;;;;;;;;;;16.05;58.08;101810.91;4958573;28;1153;-55
2022/10/27 04:37:47;;;;;;;;;;;;;;;15.97;57.72;101816.78;4975715;28;1918;-54
2022/10/27 04:40:13;;;;;;;;;;;;;;;15.88;57.78;101815.50;4958244;28;1165;-55
2022/10/27 04:42:42;;;;;;;;;;;;;;;16.22;58.34;101818.34;4958394;28;1141;-55
2022/10/27 04:45:08;;;;;;;;;;;;;;;17.42;56.39;101834.63;4988852;28;1006;-55
2022/10/27 04:47:33;;;;;;;;;;;;;;;16.50;58.16;101841.38;4958208;28;1157;-56
2022/10/27 04:49:59;;;;;;;;;;;;;;;16.20;58.26;101836.97;4957886;28;1180;-56
2022/10/27 04:52:24;;;;;;;;;;;;;;;16.06;57.87;101833.66;4958079;28;1078;-55
2022/10/27 04:54:50;;;;;;;;;;;;;;;15.91;58.02;101850.69;4958108;28;1118;-55
2022/10/27 04:57:16;;;;;;;;;;;;;;;16.15;58.29;101861.56;4988858;28;922;-55
2022/10/27 04:59:41;;;;;;;;;;;;;;;17.53;56.38;101865.00;4957980;28;1981;-55
2022/10/27 05:02:07;;;;;;;;;;;;;;;16.60;58.02;101869.00;4957944;28;1086;-55
2022/10/27 05:04:32;;;;;;;;;;;;;;;16.28;58.40;101865.94;4957891;28;2566;-55
2022/10/27 05:06:58;;;;;;;;;;;;;;;16.06;58.02;101870.19;4957814;28;1405;-55
2022/10/27 05:09:23;;;;;;;;;;;;;;;15.97;57.94;101865.31;4957868;28;924;-55
2022/10/27 05:11:48;;;;;;;;;;;;;;;15.91;58.11;101875.38;4958051;28;1137;-55
2022/10/27 05:14:14;;;;;;;;;;;;;;;17.44;56.83;101883.88;4957841;28;1115;-55
2022/10/27 05:16:39;;;;;;;;;;;;;;;16.73;57.90;101876.94;4957579;28;1117;-55
2022/10/27 05:19:05;;;;;;;;;;;;;;;16.27;58.26;101881.59;4957337;28;1977;-54
2022/10/27 05:21:31;;;;;;;;;;;;;;;16.10;58.43;101886.16;4957873;28;967;-55
2022/10/27 05:23:57;;;;;;;;;;;;;;;15.98;58.19;101883.47;4957252;28;1466;-56
2022/10/27 05:26:22;;;;;;;;;;;;;;;15.84;57.94;101893.88;4944201;29;1149;-56
2022/10/27 05:28:47;;;;;;;;;;;;;;;15.82;58.09;101896.00;4957996;28;1169;-55
2022/10/27 05:31:13;;;;;;;;;;;;;;;17.26;57.06;101899.56;4960741;28;1181;-56
2022/10/27 05:33:38;;;;;;;;;;;;;;;16.77;57.88;101907.47;4961240;28;2490;-55
2022/10/27 05:36:04;;;;;;;;;;;;;;;17.56;57.24;101914.03;4960305;29;1288;-56
2022/10/27 05:38:29;;;;;;;;;;;;;;;16.76;56.53;101922.31;4961400;28;1979;-55
2022/10/27 05:40:55;;;;;;;;;;;;;;;16.47;54.32;101929.72;4948117;28;1134;-54
2022/10/27 05:43:20;;;;;;;;;;;;;;;16.40;53.50;101925.19;4992373;28;1144;-53
2022/10/27 05:45:46;;;;;;;;;;;;;;;16.63;54.79;101928.09;4961157;28;868;-54
2022/10/27 05:48:11;;;;;;;;;;;;;;;16.38;53.33;101932.84;4961068;28;1094;-57
2022/10/27 05:50:37;;;;;;;;;;;;;;;16.20;52.11;101935.75;4961164;28;1090;-56
2022/10/27 05:53:02;;;;;;;;;;;;;;;16.16;50.42;101929.06;4961108;28;1153;-58
2022/10/27 05:55:28;;;;;;;;;;;;;;;17.02;53.44;101926.34;4961488;28;1224;-56
2022/10/27 05:57:54;;;;;;;;;;;;;;;16.37;52.99;101927.63;4960875;28;1898;-57
2022/10/27 06:00:19;;;;;;;;;;;;;;;16.23;51.65;101929.81;4960954;28;1180;-54
2022/10/27 06:02:45;;;;;;;;;;;;;;;16.13;50.29;101935.06;4964445;28;1217;-55
2022/10/27 06:05:10;;;;;;;;;;;;;;;16.07;49.65;101943.22;4959810;28;1180;-54
2022/10/27 06:07:36;;;;;;;;;;;;;;;15.91;49.31;101946.69;4951109;28;1141;-54
2022/10/27 06:10:01;;;;;;;;;;;;;;;16.79;50.85;101943.78;4991907;28;938;-54
2022/10/27 06:12:27;;;;;;;;;;;;;;;16.52;51.76;101954.50;4960953;28;1207;-56
2022/10/27 06:14:52;;;;;;;;;;;;;;;17.93;53.82;101954.72;4961156;28;1102;-57
2022/10/27 06:17:18;;;;;;;;;;;;;;;18.00;54.58;101957.31;4959649;28;1188;-55
2022/10/27 06:19:43;;;;;;;;;;;;;;;17.24;54.34;101959.44;4948600;29;1910;-55
2022/10/27 06:22:08;;;;;;;;;;;;;;;17.06;52.67;101960.50;4991279;28;1011;-55
2022/10/27 06:24:34;;;;;;;;;;;;;;;16.77;51.51;101957.78;4960594;28;1359;-56
2022/10/27 06:26:59;;;;;;;;;;;;;;;16.63;50.55;101964.63;4961204;28;1149;-56
2022/10/27 06:29:25;;;;;;;;;;;;;;;16.57;49.78;101962.88;4977909;28;1227;-56
2022/10/27 06:31:52;;;;;;;;;;;;;;;16.50;48.95;101967.66;4960713;28;1213;-56
2022/10/27 06:34:17;;;;;;;;;;;;;;;16.34;48.70;101964.63;4960734;28;1049;-55
2022/10/27 06:36:43;;;;;;;;;;;;;;;16.22;48.78;101972.84;4960343;28;1208;-56
2022/10/27 06:39:08;;;;;;;;;;;;;;;16.18;48.48;101971.69;4960339;28;1918;-56
2022/10/27 06:41:33;;;;;;;;;;;;;;;16.15;47.89;101974.09;4946710;28;1137;-52
2022/10/27 06:43:59;;;;;;;;;;;;;;;16.02;47.90;101978.75;4960433;28;1173;-53
2022/10/27 06:46:24;;;;;;;;;;;;;;;16.05;47.61;101967.28;4960228;28;1177;-55
2022/10/27 06:48:50;;;;;;;;;;;;;;;15.95;47.70;101982.69;4960162;28;1153;-56
2022/10/27 06:51:15;;;;;;;;;;;;;;;15.86;47.53;101971.25;4960600;28;1232;-55
2022/10/27 06:53:41;;;;;;;;;;;;;;;15.82;47.38;101973.66;4960437;28;1169;-53
2022/10/27 06:56:06;;;;;;;;;;;;;;;15.79;47.28;101968.63;4959783;28;1209;-55
2022/10/27 06:58:34;;;;;;;;;;;;;;;15.77;47.30;101972.63;4960412;28;1954;-53
2022/10/27 07:00:59;;;;;;;;;;;;;;;15.74;47.47;101971.22;4979727;28;1140;-53
2022/10/27 07:03:24;;;;;;;;;;;;;;;15.67;47.38;101975.97;4943889;28;1137;-54
2022/10/27 07:05:50;;;;;;;;;;;;;;;15.90;47.99;101980.66;4960051;28;1303;-55
2022/10/27 07:08:15;;;;;;;;;;;;;;;16.35;49.81;101971.75;4959599;28;1129;-57
2022/10/27 07:10:41;;;;;;;;;;;;;;;15.97;49.58;101981.38;4959628;28;1157;-54
2022/10/27 07:13:06;;;;;;;;;;;;;;;15.84;48.82;101973.41;4960311;28;1221;-56
2022/10/27 07:15:32;;;;;;;;;;;;;;;15.85;48.28;101977.78;4959594;28;1129;-54
2022/10/27 07:17:58;;;;;;;;;;;;;;;16.86;45.67;101988.41;4955561;28;2296;-55
2022/10/27 07:20:23;;;;;;;;;;;;;;;17.85;46.79;101986.25;4958640;28;1956;-54
2022/10/27 07:22:49;;;;;;;;;;;;;;;16.69;49.59;101985.63;4958953;28;2247;-55
2022/10/27 07:25:14;;;;;;;;;;;;;;;16.38;49.58;101990.50;4946404;28;963;-56
2022/10/27 07:27:39;;;;;;;;;;;;;;;16.21;48.68;101984.91;4959799;28;1232;-55
2022/10/27 07:30:05;;;;;;;;;;;;;;;16.42;48.49;101988.94;4959335;29;1157;-55
2022/10/27 07:32:30;;;;;;;;;;;;;;;17.34;49.95;101989.00;4959291;28;1181;-54
2022/10/27 07:34:56;;;;;;;;;;;;;;;16.62;50.83;101990.44;4958275;29;1232;-57
2022/10/27 07:37:21;;;;;;;;;;;;;;;16.42;50.03;101990.84;4959529;28;1105;-55
2022/10/27 07:39:48;;;;;;;;;;;;;;;16.22;49.28;101994.81;4959141;28;1973;-54
2022/10/27 07:42:14;;;;;;;;;;;;;;;16.23;48.56;101998.41;4959450;28;1196;-56
2022/10/27 07:44:40;;;;;;;;;;;;;;;16.93;50.27;101989.13;4959188;28;1188;-53
2022/10/27 07:47:05;;;;;;;;;;;;;;;16.62;49.97;101993.19;4959433;28;1153;-54
2022/10/27 07:49:31;;;;;;;;;;;;;;;18.69;45.37;101987.09;4955276;28;2146;-55
2022/10/27 07:51:56;;;;;;;;;;;;;;;14.44;58.41;101996.31;4958446;28;1862;-55
2022/10/27 07:54:22;;;;;;;;;;;;;;;15.98;52.14;102001.44;4956966;29;2158;-56
2022/10/27 07:56:48;;;;;;;;;;;;;;;16.12;50.08;101988.25;4958473;28;1824;-53
2022/10/27 07:59:13;;;;;;;;;;;;;;;16.13;49.51;101984.44;4958591;28;1911;-54
2022/10/27 08:01:39;;;;;;;;;;;;;;;16.07;48.71;101992.59;4958397;28;1954;-55
2022/10/27 08:04:04;;;;;;;;;;;;;;;16.17;48.21;101991.13;4958747;28;2117;-55
2022/10/27 08:06:30;;;;;;;;;;;;;;;15.99;48.28;101998.44;4958325;28;1161;-56
2022/10/27 08:08:55;;;;;;;;;;;;;;;16.01;47.86;101992.72;4958570;28;1141;-53
2022/10/27 08:11:22;;;;;;;;;;;;;;;16.03;47.34;101996.88;4959014;28;1086;-55
2022/10/27 08:13:48;;;;;;;;;;;;;;;16.33;48.47;102006.03;4958564;28;1461;-57
2022/10/27 08:16:13;;;;;;;;;;;;;;;16.39;49.56;102007.78;4958438;28;1154;-53
2022/10/27 08:18:38;;;;;;;;;;;;;;;16.16;49.02;101995.78;4944953;28;1953;-55
2022/10/27 08:21:04;;;;;;;;;;;;;;;16.39;49.24;102005.06;4958261;28;1133;-53
2022/10/27 08:23:30;;;;;;;;;;;;;;;16.94;50.37;102011.94;4958039;28;1164;-56
2022/10/27 08:25:55;;;;;;;;;;;;;;;16.46;50.07;102004.91;4958494;28;1233;-55
2022/10/27 08:28:22;;;;;;;;;;;;;;;16.29;49.42;102004.84;4958393;28;1082;-56
2022/10/27 08:30:49;;;;;;;;;;;;;;;16.17;48.79;102002.97;4958403;28;1153;-55
2022/10/27 08:33:14;;;;;;;;;;;;;;;16.10;48.43;102009.63;4957711;28;1792;-55
2022/10/27 08:35:40;;;;;;;;;;;;;;;16.10;48.04;102009.63;4958126;28;1153;-57
2022/10/27 08:38:10;;;;;;;;;;;;;;;16.01;47.83;102009.16;4958111;28;1966;-56
2022/10/27 08:40:37;;;;;;;;;;;;;;;17.06;49.30;101998.97;4958251;28;1189;-55
2022/10/27 08:43:21;;;;;;;;;;;;;;;16.49;49.59;102004.44;4981496;28;1144;-55
2022/10/27 08:45:53;;;;;;;;;;;;;;;17.04;50.11;101994.81;4954721;29;1122;-54
2022/10/27 08:48:20;;;;;;;;;;;;;;;16.75;50.65;101995.63;4980035;28;1208;-54
2022/10/27 08:50:46;;;;;;;;;;;;;;;16.43;49.98;101996.06;4953884;28;1146;-55
2022/10/27 08:53:12;;;;;;;;;;;;;;;16.36;49.43;102013.78;4949042;29;1157;-53
2022/10/27 08:55:45;;;;;;;;;;;;;;;16.32;48.71;102007.94;4952794;28;1117;-54
2022/10/27 08:58:18;;;;;;;;;;;;;;;16.21;47.99;102003.28;4988749;28;1920;-54
2022/10/27 09:00:58;;;;;;;;;;;;;;;16.12;47.86;101997.34;4976839;28;1156;-53
2022/10/27 09:03:42;;;;;;;;;;;;;;;16.03;47.56;101996.03;4970107;28;1796;-53
2022/10/27 09:06:13;;;;;;;;;;;;;;;16.00;47.46;102002.84;4957399;29;1146;-53
2022/10/27 09:08:57;;;;;;;;;;;;;;;16.05;47.19;101996.66;4985607;28;1097;-55
2022/10/27 09:11:26;;;;;;;;;;;;;;;16.65;47.88;102002.81;4961013;28;955;-55
2022/10/27 09:13:54;;;;;;;;;;;;;;;16.36;49.40;102003.63;4953361;28;1086;-55
2022/10/27 09:16:43;;;;;;;;;;;;;;;16.18;48.85;101992.81;4956070;29;1117;-57
2022/10/27 09:19:11;;;;;;;;;;;;;;;16.13;48.39;101988.06;4951767;28;1910;-57
2022/10/27 09:21:37;;;;;;;;;;;;;;;16.99;48.65;101991.97;4980294;28;1164;-55
2022/10/27 09:24:12;;;;;;;;;;;;;;;16.41;49.55;102001.00;4961895;28;1177;-56
2022/10/27 09:26:37;;;;;;;;;;;;;;;16.31;48.69;102009.00;4959839;28;1172;-56
2022/10/27 09:29:09;;;;;;;;;;;;;;;16.20;48.19;102009.84;4973142;28;1140;-55
2022/10/27 09:31:34;;;;;;;;;;;;;;;16.17;47.92;102002.97;4942666;29;1089;-55
2022/10/27 09:34:02;;;;;;;;;;;;;;;16.14;47.85;102002.59;4960397;28;2653;-55
2022/10/27 09:36:28;;;;;;;;;;;;;;;16.85;49.30;101994.97;4961310;28;1149;-56
2022/10/27 09:38:53;;;;;;;;;;;;;;;16.43;49.62;101995.25;4961661;28;1977;-56
2022/10/27 09:41:19;;;;;;;;;;;;;;;16.38;48.66;101997.88;4961263;28;1196;-55
2022/10/27 09:43:44;;;;;;;;;;;;;;;16.88;49.79;101991.78;4944065;28;1177;-56
2022/10/27 09:46:23;;;;;;;;;;;;;;;16.42;49.74;101999.06;4980937;28;1116;-55
2022/10/27 09:48:49;;;;;;;;;;;;;;;16.29;48.95;101983.72;4961076;28;1160;-56
2022/10/27 09:51:19;;;;;;;;;;;;;;;16.29;48.44;101989.19;4984044;28;1219;-56
2022/10/27 09:53:49;;;;;;;;;;;;;;;17.09;49.08;101984.72;4987654;28;1193;-56
2022/10/27 09:56:15;;;;;;;;;;;;;;;16.57;49.45;101979.34;4961047;28;1153;-56
2022/10/27 09:58:56;;;;;;;;;;;;;;;16.43;49.13;101987.84;4960480;28;1906;-56
2022/10/27 10:01:22;;;;;;;;;;;;;;;16.32;48.42;101977.72;4977443;28;1180;-55
2022/10/27 10:03:51;;;;;;;;;;;;;;;16.86;49.17;101979.34;4990636;28;1815;-56
2022/10/27 10:06:24;;;;;;;;;;;;;;;16.64;49.44;101982.78;4961246;28;1098;-55
2022/10/27 10:08:49;;;;;;;;;;;;;;;16.37;49.09;101972.34;4982630;28;1137;-55
2022/10/27 10:11:21;;;;;;;;;;;;;;;16.36;48.51;101973.44;4986288;28;1121;-55
2022/10/27 10:13:59;;;;;;;;;;;;;;;16.30;48.19;101979.03;4961036;28;1090;-55
2022/10/27 10:16:27;;;;;;;;;;;;;;;16.22;47.89;101983.00;4959777;28;1142;-55
2022/10/27 10:19:15;;;;;;;;;;;;;;;16.20;47.59;101979.66;4960689;28;1975;-59
2022/10/27 10:21:45;;;;;;;;;;;;;;;16.10;47.66;101980.28;4959677;28;1934;-55
2022/10/27 10:24:21;;;;;;;;;;;;;;;16.03;47.74;101974.94;4959309;29;1117;-57
2022/10/27 10:26:48;;;;;;;;;;;;;;;16.05;47.06;101966.47;4977881;28;1120;-56
2022/10/27 10:29:26;;;;;;;;;;;;;;;16.03;47.47;101974.94;4982914;28;1211;-54
2022/10/27 10:31:52;;;;;;;;;;;;;;;17.17;48.61;101971.69;4986540;28;1196;-53
2022/10/27 10:34:30;;;;;;;;;;;;;;;16.47;49.59;101968.16;4960394;28;2540;-53
2022/10/27 10:36:55;;;;;;;;;;;;;;;16.32;48.84;101968.69;4958600;29;1224;-53
2022/10/27 10:39:35;;;;;;;;;;;;;;;17.14;49.41;101977.66;4960312;28;1915;-55
2022/10/27 10:42:11;;;;;;;;;;;;;;;16.56;49.60;101967.53;4960619;28;1117;-54
2022/10/27 10:44:37;;;;;;;;;;;;;;;16.42;49.13;101966.97;4960316;28;1153;-55
2022/10/27 10:47:02;;;;;;;;;;;;;;;16.28;48.55;101968.31;4959587;28;1224;-52
2022/10/27 10:49:29;;;;;;;;;;;;;;;16.48;48.81;101967.06;4959932;28;1168;-57
2022/10/27 10:51:55;;;;;;;;;;;;;;;16.71;49.67;101966.97;4960512;28;1109;-57
2022/10/27 10:54:28;;;;;;;;;;;;;;;16.42;49.59;101961.50;4972070;28;1136;-53
2022/10/27 10:56:53;;;;;;;;;;;;;;;16.30;48.68;101955.19;4953416;29;1220;-55
2022/10/27 10:59:19;;;;;;;;;;;;;;;16.31;48.25;101965.06;4959393;28;1902;-51
2022/10/27 11:01:54;;;;;;;;;;;;;;;16.17;48.10;101956.31;4984345;28;1163;-56
2022/10/27 11:04:23;;;;;;;;;;;;;;;16.13;47.71;101954.28;4954094;29;1789;-55
2022/10/27 11:06:58;;;;;;;;;;;;;;;16.12;47.76;101950.69;4959691;28;1388;-49
2022/10/27 11:09:27;;;;;;;;;;;;;;;16.05;47.54;101945.34;4959505;28;1153;-50
2022/10/27 11:11:53;;;;;;;;;;;;;;;16.06;47.55;101941.53;4955297;29;912;-54
2022/10/27 11:14:18;;;;;;;;;;;;;;;15.97;47.52;101945.69;4959736;28;1082;-53
2022/10/27 11:16:46;;;;;;;;;;;;;;;15.98;47.23;101946.56;4977167;28;1124;-55
2022/10/27 11:19:14;;;;;;;;;;;;;;;15.97;47.35;101937.47;4942556;29;1902;-54
2022/10/27 11:21:51;;;;;;;;;;;;;;;15.89;47.07;101929.63;4976954;28;1195;-55
2022/10/27 11:24:30;;;;;;;;;;;;;;;15.97;47.47;101926.50;4990338;28;958;-53
2022/10/27 11:27:02;;;;;;;;;;;;;;;16.73;49.47;101933.75;4954895;28;1141;-53
2022/10/27 11:29:30;;;;;;;;;;;;;;;16.31;49.49;101937.63;4950528;29;1148;-50
2022/10/27 11:32:12;;;;;;;;;;;;;;;16.21;48.65;101934.69;4959233;28;1255;-53
2022/10/27 11:34:38;;;;;;;;;;;;;;;16.06;48.54;101937.94;4981925;28;2252;-50
2022/10/27 11:37:10;;;;;;;;;;;;;;;16.07;47.87;101936.88;4959012;28;1169;-54
2022/10/27 11:39:35;;;;;;;;;;;;;;;16.11;47.51;101920.75;4959200;28;1902;-55
2022/10/27 11:42:06;;;;;;;;;;;;;;;16.57;49.33;101930.72;4959242;28;1164;-56
2022/10/27 11:44:38;;;;;;;;;;;;;;;16.21;49.49;101946.47;4980984;28;1364;-56
2022/10/27 11:47:08;;;;;;;;;;;;;;;16.14;48.61;101936.72;4945582;29;1236;-56
2022/10/27 11:49:33;;;;;;;;;;;;;;;15.98;48.66;101932.84;4981394;28;1086;-56
2022/10/27 11:51:59;;;;;;;;;;;;;;;15.99;47.95;101943.56;4953762;29;1110;-52
2022/10/27 11:54:24;;;;;;;;;;;;;;;15.92;48.03;101953.81;4958576;28;1300;-53
2022/10/27 11:57:02;;;;;;;;;;;;;;;15.96;47.65;101955.00;4959020;28;1171;-52
2022/10/27 11:59:41;;;;;;;;;;;;;;;15.91;47.45;101960.41;4958207;28;1903;-54
2022/10/27 12:02:24;;;;;;;;;;;;;;;15.95;47.09;101942.38;4958715;28;1149;-53
2022/10/27 12:05:09;;;;;;;;;;;;;;;16.45;48.95;101942.84;4958540;28;2185;-56
2022/10/27 12:07:38;;;;;;;;;;;;;;;16.12;49.03;101944.34;4947237;29;1133;-55
2022/10/27 12:10:09;;;;;;;;;;;;;;;16.03;48.27;101947.50;4958769;28;1102;-56
2022/10/27 12:12:35;;;;;;;;;;;;;;;16.81;49.17;101929.81;4951637;28;1014;-56
2022/10/27 12:15:03;;;;;;;;;;;;;;;16.17;49.74;101928.88;4951789;29;1129;-56
2022/10/27 12:17:32;;;;;;;;;;;;;;;16.14;48.71;101939.47;4956936;28;1260;-56
2022/10/27 12:19:57;;;;;;;;;;;;;;;16.12;48.21;101944.34;4958325;28;1895;-56
2022/10/27 12:22:23;;;;;;;;;;;;;;;16.10;47.71;101949.28;4956940;29;1209;-53
2022/10/27 12:25:07;;;;;;;;;;;;;;;15.99;47.86;101949.06;4958273;28;1233;-56
2022/10/27 12:27:39;;;;;;;;;;;;;;;15.91;47.72;101954.91;4957735;28;1209;-56
2022/10/27 12:30:08;;;;;;;;;;;;;;;16.73;48.64;101951.09;4956649;29;1244;-55
2022/10/27 12:32:34;;;;;;;;;;;;;;;16.33;49.31;101954.69;4958079;28;1216;-57
2022/10/27 12:35:05;;;;;;;;;;;;;;;16.14;48.83;101947.72;4957721;28;2475;-57
2022/10/27 12:37:37;;;;;;;;;;;;;;;16.08;48.45;101949.50;4956863;29;1193;-58
2022/10/27 12:40:04;;;;;;;;;;;;;;;15.98;47.99;101961.09;4956326;28;1994;-57
2022/10/27 12:42:32;;;;;;;;;;;;;;;16.01;47.54;101960.63;4956728;29;1185;-57
2022/10/27 12:44:58;;;;;;;;;;;;;;;16.46;48.59;101963.75;4956571;29;1122;-57
2022/10/27 12:47:26;;;;;;;;;;;;;;;16.43;49.42;101963.13;4958165;28;1181;-58
2022/10/27 12:50:05;;;;;;;;;;;;;;;16.20;49.03;101957.72;4957594;28;1312;-57